sensor_id;sensor_type;location;lat;lon;timestamp;pressure;altitude;pressure_sealevel;temperature;humidity
79461;BME280;68929;42.666;23.324;2023-05-23T00:01:29;94405.88;;;15.78;68.99
79461;BME280;68929;42.666;23.324;2023-05-23T00:03:56;94412.06;;;15.84;68.82
79461;BME280;68929;42.666;23.324;2023-05-23T00:06:21;94383.69;;;15.73;68.71
79461;BME280;68929;42.666;23.324;2023-05-23T00:08:47;94408.28;;;16.07;67.99
79461;BME280;68929;42.666;23.324;2023-05-23T00:11:13;94387.97;;;15.74;68.49
79461;BME280;68929;42.666;23.324;2023-05-23T00:13:38;94401.41;;;15.57;69.11
79461;BME280;68929;42.666;23.324;2023-05-23T00:16:05;94417.69;;;15.61;68.81
79461;BME280;68929;42.666;23.324;2023-05-23T00:18:34;94403.47;;;15.77;68.77
79461;BME280;68929;42.666;23.324;2023-05-23T00:20:59;94413.16;;;15.88;67.84
79461;BME280;68929;42.666;23.324;2023-05-23T00:23:26;94387.38;;;15.67;68.34
79461;BME280;68929;42.666;23.324;2023-05-23T00:25:54;94404.22;;;15.72;68.19
79461;BME280;68929;42.666;23.324;2023-05-23T00:28:19;94390.19;;;15.82;68.30
79461;BME280;68929;42.666;23.324;2023-05-23T00:30:44;94402.16;;;16.06;67.37
79461;BME280;68929;42.666;23.324;2023-05-23T00:33:10;94382.72;;;16.11;67.18
79461;BME280;68929;42.666;23.324;2023-05-23T00:35:38;94405.59;;;16.33;66.76
79461;BME280;68929;42.666;23.324;2023-05-23T00:38:04;94410.00;;;16.18;67.07
79461;BME280;68929;42.666;23.324;2023-05-23T00:40:32;94393.09;;;16.07;66.87
79461;BME280;68929;42.666;23.324;2023-05-23T00:42:58;94384.94;;;15.92;67.31
79461;BME280;68929;42.666;23.324;2023-05-23T00:45:24;94409.09;;;16.07;67.32
79461;BME280;68929;42.666;23.324;2023-05-23T00:47:49;94390.34;;;15.97;67.48
79461;BME280;68929;42.666;23.324;2023-05-23T00:50:17;94360.88;;;15.82;66.65
79461;BME280;68929;42.666;23.324;2023-05-23T00:52:44;94403.56;;;16.14;66.60
79461;BME280;68929;42.666;23.324;2023-05-23T00:55:11;94409.69;;;16.14;66.62
79461;BME280;68929;42.666;23.324;2023-05-23T00:57:37;94379.03;;;15.85;67.12
79461;BME280;68929;42.666;23.324;2023-05-23T01:00:14;94410.09;;;16.01;67.17
79461;BME280;68929;42.666;23.324;2023-05-23T01:02:45;94392.41;;;15.90;67.27
79461;BME280;68929;42.666;23.324;2023-05-23T01:05:13;94400.19;;;15.70;66.57
79461;BME280;68929;42.666;23.324;2023-05-23T01:07:44;94401.78;;;15.71;67.87
79461;BME280;68929;42.666;23.324;2023-05-23T01:10:15;94413.63;;;15.80;67.48
79461;BME280;68929;42.666;23.324;2023-05-23T01:12:55;94426.94;;;15.80;67.61
79461;BME280;68929;42.666;23.324;2023-05-23T01:15:42;94416.84;;;15.82;67.96
79461;BME280;68929;42.666;23.324;2023-05-23T01:18:19;94398.56;;;15.69;66.36
79461;BME280;68929;42.666;23.324;2023-05-23T01:20:54;94415.56;;;15.63;68.06
79461;BME280;68929;42.666;23.324;2023-05-23T01:23:24;94415.63;;;15.68;67.71
79461;BME280;68929;42.666;23.324;2023-05-23T01:28:54;94390.09;;;15.72;67.31
79461;BME280;68929;42.666;23.324;2023-05-23T01:31:23;94408.91;;;15.60;68.02
79461;BME280;68929;42.666;23.324;2023-05-23T01:33:50;94403.00;;;15.58;67.78
79461;BME280;68929;42.666;23.324;2023-05-23T01:36:17;94385.88;;;15.76;67.53
79461;BME280;68929;42.666;23.324;2023-05-23T01:38:43;94410.66;;;16.03;67.28
79461;BME280;68929;42.666;23.324;2023-05-23T01:41:08;94408.50;;;16.00;67.00
79461;BME280;68929;42.666;23.324;2023-05-23T01:43:33;94404.88;;;15.84;67.39
79461;BME280;68929;42.666;23.324;2023-05-23T01:45:59;94406.28;;;15.92;67.28
79461;BME280;68929;42.666;23.324;2023-05-23T01:48:26;94394.13;;;15.74;67.82
79461;BME280;68929;42.666;23.324;2023-05-23T01:50:53;94399.56;;;15.84;67.99
79461;BME280;68929;42.666;23.324;2023-05-23T01:53:21;94395.13;;;15.95;67.98
79461;BME280;68929;42.666;23.324;2023-05-23T01:55:46;94389.19;;;15.88;68.54
79461;BME280;68929;42.666;23.324;2023-05-23T01:58:12;94400.47;;;15.95;68.55
79461;BME280;68929;42.666;23.324;2023-05-23T02:00:38;94377.41;;;15.84;68.63
79461;BME280;68929;42.666;23.324;2023-05-23T02:03:03;94382.75;;;15.84;68.95
79461;BME280;68929;42.666;23.324;2023-05-23T02:05:30;94377.41;;;15.84;68.58
79461;BME280;68929;42.666;23.324;2023-05-23T02:07:55;94385.56;;;15.99;67.90
79461;BME280;68929;42.666;23.324;2023-05-23T02:10:21;94394.75;;;16.13;67.61
79461;BME280;68929;42.666;23.324;2023-05-23T02:12:46;94396.44;;;16.24;67.32
79461;BME280;68929;42.666;23.324;2023-05-23T02:15:12;94398.50;;;16.17;67.46
79461;BME280;68929;42.666;23.324;2023-05-23T02:17:37;94378.19;;;16.06;67.42
79461;BME280;68929;42.666;23.324;2023-05-23T02:20:07;94392.00;;;16.03;67.73
79461;BME280;68929;42.666;23.324;2023-05-23T02:22:32;94387.69;;;15.97;67.77
79461;BME280;68929;42.666;23.324;2023-05-23T02:24:58;94397.34;;;16.03;67.57
79461;BME280;68929;42.666;23.324;2023-05-23T02:27:23;94386.78;;;15.86;68.23
79461;BME280;68929;42.666;23.324;2023-05-23T02:29:49;94397.72;;;15.90;68.35
79461;BME280;68929;42.666;23.324;2023-05-23T02:32:14;94383.84;;;15.88;67.93
79461;BME280;68929;42.666;23.324;2023-05-23T02:34:39;94393.50;;;15.94;67.69
79461;BME280;68929;42.666;23.324;2023-05-23T02:37:05;94380.91;;;15.58;67.56
79461;BME280;68929;42.666;23.324;2023-05-23T02:39:30;94370.06;;;15.43;68.55
79461;BME280;68929;42.666;23.324;2023-05-23T02:41:56;94365.00;;;15.68;68.40
79461;BME280;68929;42.666;23.324;2023-05-23T02:44:21;94393.81;;;15.97;67.42
79461;BME280;68929;42.666;23.324;2023-05-23T02:46:46;94372.09;;;15.84;67.57
79461;BME280;68929;42.666;23.324;2023-05-23T02:49:12;94391.38;;;15.96;67.33
79461;BME280;68929;42.666;23.324;2023-05-23T02:51:37;94387.63;;;15.92;67.31
79461;BME280;68929;42.666;23.324;2023-05-23T02:54:03;94350.50;;;15.54;67.28
79461;BME280;68929;42.666;23.324;2023-05-23T02:56:29;94367.06;;;15.61;67.72
79461;BME280;68929;42.666;23.324;2023-05-23T02:58:54;94361.19;;;15.59;67.88
79461;BME280;68929;42.666;23.324;2023-05-23T03:01:20;94388.59;;;15.81;67.51
79461;BME280;68929;42.666;23.324;2023-05-23T03:03:45;94391.19;;;15.76;67.34
79461;BME280;68929;42.666;23.324;2023-05-23T03:06:11;94376.06;;;15.33;68.03
79461;BME280;68929;42.666;23.324;2023-05-23T03:08:41;94361.88;;;15.28;68.63
79461;BME280;68929;42.666;23.324;2023-05-23T03:11:07;94361.00;;;15.00;67.49
79461;BME280;68929;42.666;23.324;2023-05-23T03:13:33;94387.00;;;14.55;69.63
79461;BME280;68929;42.666;23.324;2023-05-23T03:15:59;94381.88;;;14.32;70.78
79461;BME280;68929;42.666;23.324;2023-05-23T03:18:24;94379.84;;;14.06;71.30
79461;BME280;68929;42.666;23.324;2023-05-23T03:20:50;94382.53;;;13.78;72.21
79461;BME280;68929;42.666;23.324;2023-05-23T03:23:15;94362.31;;;13.60;72.86
79461;BME280;68929;42.666;23.324;2023-05-23T03:25:41;94372.50;;;13.51;74.72
79461;BME280;68929;42.666;23.324;2023-05-23T03:28:07;94392.47;;;13.71;74.03
79461;BME280;68929;42.666;23.324;2023-05-23T03:30:32;94394.75;;;13.62;73.80
79461;BME280;68929;42.666;23.324;2023-05-23T03:32:58;94400.22;;;13.44;74.97
79461;BME280;68929;42.666;23.324;2023-05-23T03:35:23;94385.75;;;13.23;75.09
79461;BME280;68929;42.666;23.324;2023-05-23T03:37:48;94393.84;;;13.28;75.15
79461;BME280;68929;42.666;23.324;2023-05-23T03:40:14;94400.66;;;13.52;75.41
79461;BME280;68929;42.666;23.324;2023-05-23T03:42:39;94410.72;;;13.50;75.26
79461;BME280;68929;42.666;23.324;2023-05-23T03:45:05;94375.25;;;13.28;74.93
79461;BME280;68929;42.666;23.324;2023-05-23T03:47:31;94392.66;;;13.64;76.38
79461;BME280;68929;42.666;23.324;2023-05-23T03:49:56;94407.84;;;13.97;74.09
79461;BME280;68929;42.666;23.324;2023-05-23T03:52:22;94392.19;;;13.84;73.90
79461;BME280;68929;42.666;23.324;2023-05-23T03:54:47;94415.00;;;13.51;75.25
79461;BME280;68929;42.666;23.324;2023-05-23T03:57:12;94393.91;;;13.33;76.10
79461;BME280;68929;42.666;23.324;2023-05-23T03:59:38;94409.31;;;13.59;76.02
79461;BME280;68929;42.666;23.324;2023-05-23T04:02:04;94412.00;;;13.76;76.91
79461;BME280;68929;42.666;23.324;2023-05-23T04:04:30;94424.53;;;14.09;75.80
79461;BME280;68929;42.666;23.324;2023-05-23T04:06:56;94410.75;;;14.12;74.58
79461;BME280;68929;42.666;23.324;2023-05-23T04:09:22;94393.03;;;14.17;74.30
79461;BME280;68929;42.666;23.324;2023-05-23T04:11:47;94411.09;;;14.49;74.11
79461;BME280;68929;42.666;23.324;2023-05-23T04:14:13;94412.38;;;14.46;74.33
79461;BME280;68929;42.666;23.324;2023-05-23T04:16:38;94398.84;;;14.64;73.77
79461;BME280;68929;42.666;23.324;2023-05-23T04:19:06;94423.16;;;14.73;72.80
79461;BME280;68929;42.666;23.324;2023-05-23T04:21:31;94406.41;;;14.72;72.90
79461;BME280;68929;42.666;23.324;2023-05-23T04:23:57;94404.50;;;14.51;72.93
79461;BME280;68929;42.666;23.324;2023-05-23T04:26:22;94414.41;;;14.56;74.00
79461;BME280;68929;42.666;23.324;2023-05-23T04:28:47;94400.47;;;14.32;74.30
79461;BME280;68929;42.666;23.324;2023-05-23T04:31:14;94409.56;;;14.36;74.59
79461;BME280;68929;42.666;23.324;2023-05-23T04:33:39;94399.78;;;14.25;74.15
79461;BME280;68929;42.666;23.324;2023-05-23T04:36:05;94413.34;;;14.23;75.41
79461;BME280;68929;42.666;23.324;2023-05-23T04:38:34;94404.63;;;13.95;75.27
79461;BME280;68929;42.666;23.324;2023-05-23T04:40:59;94412.91;;;14.15;75.31
79461;BME280;68929;42.666;23.324;2023-05-23T04:43:25;94411.13;;;14.32;75.17
79461;BME280;68929;42.666;23.324;2023-05-23T04:45:51;94413.88;;;14.37;73.96
79461;BME280;68929;42.666;23.324;2023-05-23T04:48:20;94416.56;;;14.59;74.14
79461;BME280;68929;42.666;23.324;2023-05-23T04:50:48;94421.09;;;14.75;73.75
79461;BME280;68929;42.666;23.324;2023-05-23T04:53:15;94417.69;;;14.13;74.31
79461;BME280;68929;42.666;23.324;2023-05-23T04:55:40;94419.25;;;13.24;77.91
79461;BME280;68929;42.666;23.324;2023-05-23T04:58:06;94436.56;;;13.55;78.04
79461;BME280;68929;42.666;23.324;2023-05-23T05:00:32;94418.31;;;13.87;76.87
79461;BME280;68929;42.666;23.324;2023-05-23T05:02:57;94418.81;;;14.17;76.46
79461;BME280;68929;42.666;23.324;2023-05-23T05:05:22;94429.59;;;14.27;75.17
79461;BME280;68929;42.666;23.324;2023-05-23T05:07:48;94429.59;;;14.27;75.58
79461;BME280;68929;42.666;23.324;2023-05-23T05:10:13;94433.25;;;14.54;74.98
79461;BME280;68929;42.666;23.324;2023-05-23T05:12:44;94436.88;;;14.65;74.70
79461;BME280;68929;42.666;23.324;2023-05-23T05:15:19;94435.13;;;14.54;75.33
79461;BME280;68929;42.666;23.324;2023-05-23T05:17:44;94445.75;;;14.70;73.67
79461;BME280;68929;42.666;23.324;2023-05-23T05:20:10;94442.25;;;14.86;74.15
79461;BME280;68929;42.666;23.324;2023-05-23T05:22:39;94419.91;;;14.87;73.60
79461;BME280;68929;42.666;23.324;2023-05-23T05:25:05;94426.78;;;15.21;72.27
79461;BME280;68929;42.666;23.324;2023-05-23T05:27:31;94439.16;;;15.76;70.89
79461;BME280;68929;42.666;23.324;2023-05-23T05:29:57;94448.81;;;15.82;70.67
79461;BME280;68929;42.666;23.324;2023-05-23T05:32:22;94441.19;;;16.17;68.71
79461;BME280;68929;42.666;23.324;2023-05-23T05:34:48;94449.13;;;16.39;68.56
79461;BME280;68929;42.666;23.324;2023-05-23T05:37:15;94450.06;;;16.49;67.93
79461;BME280;68929;42.666;23.324;2023-05-23T05:39:40;94424.84;;;16.40;66.96
79461;BME280;68929;42.666;23.324;2023-05-23T05:42:06;94456.97;;;16.82;65.75
79461;BME280;68929;42.666;23.324;2023-05-23T05:44:31;94451.63;;;16.50;66.51
79461;BME280;68929;42.666;23.324;2023-05-23T05:46:57;94450.06;;;16.86;66.19
79461;BME280;68929;42.666;23.324;2023-05-23T05:49:22;94435.88;;;16.81;66.37
79461;BME280;68929;42.666;23.324;2023-05-23T05:51:47;94455.69;;;16.90;66.09
79461;BME280;68929;42.666;23.324;2023-05-23T05:54:13;94441.72;;;16.77;66.32
79461;BME280;68929;42.666;23.324;2023-05-23T05:56:41;94460.47;;;16.88;66.76
79461;BME280;68929;42.666;23.324;2023-05-23T05:59:06;94450.19;;;16.69;66.10
79461;BME280;68929;42.666;23.324;2023-05-23T06:01:32;94444.78;;;16.59;67.08
79461;BME280;68929;42.666;23.324;2023-05-23T06:04:00;94453.47;;;16.82;65.91
79461;BME280;68929;42.666;23.324;2023-05-23T06:06:25;94441.28;;;16.54;67.02
79461;BME280;68929;42.666;23.324;2023-05-23T06:08:54;94465.47;;;16.47;67.24
79461;BME280;68929;42.666;23.324;2023-05-23T06:11:19;94444.94;;;15.68;68.35
79461;BME280;68929;42.666;23.324;2023-05-23T06:13:45;94448.72;;;15.29;70.00
79461;BME280;68929;42.666;23.324;2023-05-23T06:16:10;94442.91;;;15.75;69.58
79461;BME280;68929;42.666;23.324;2023-05-23T06:18:36;94467.06;;;16.48;67.50
79461;BME280;68929;42.666;23.324;2023-05-23T06:21:01;94456.66;;;16.47;66.64
79461;BME280;68929;42.666;23.324;2023-05-23T06:23:26;94460.59;;;15.86;68.83
79461;BME280;68929;42.666;23.324;2023-05-23T06:25:52;94459.31;;;15.67;70.85
79461;BME280;68929;42.666;23.324;2023-05-23T06:28:17;94435.75;;;16.07;70.17
79461;BME280;68929;42.666;23.324;2023-05-23T06:30:43;94456.91;;;16.45;68.74
79461;BME280;68929;42.666;23.324;2023-05-23T06:33:08;94453.09;;;17.05;65.30
79461;BME280;68929;42.666;23.324;2023-05-23T06:35:33;94464.22;;;16.87;66.23
79461;BME280;68929;42.666;23.324;2023-05-23T06:37:59;94457.97;;;16.44;67.32
79461;BME280;68929;42.666;23.324;2023-05-23T06:40:24;94470.50;;;16.70;66.92
79461;BME280;68929;42.666;23.324;2023-05-23T06:42:50;94448.25;;;16.02;68.38
79461;BME280;68929;42.666;23.324;2023-05-23T06:45:15;94433.31;;;16.32;68.46
79461;BME280;68929;42.666;23.324;2023-05-23T06:47:41;94463.69;;;16.26;69.51
79461;BME280;68929;42.666;23.324;2023-05-23T06:50:09;94451.50;;;15.82;69.80
79461;BME280;68929;42.666;23.324;2023-05-23T06:52:35;94448.56;;;16.63;68.41
79461;BME280;68929;42.666;23.324;2023-05-23T06:55:00;94437.47;;;16.82;67.60
79461;BME280;68929;42.666;23.324;2023-05-23T06:57:26;94436.03;;;17.11;66.43
79461;BME280;68929;42.666;23.324;2023-05-23T06:59:51;94432.81;;;17.50;65.30
79461;BME280;68929;42.666;23.324;2023-05-23T07:02:16;94441.22;;;17.84;64.00
79461;BME280;68929;42.666;23.324;2023-05-23T07:04:42;94444.50;;;18.11;64.23
79461;BME280;68929;42.666;23.324;2023-05-23T07:07:07;94432.22;;;18.25;63.99
79461;BME280;68929;42.666;23.324;2023-05-23T07:09:32;94433.56;;;18.23;61.86
79461;BME280;68929;42.666;23.324;2023-05-23T07:11:58;94445.13;;;18.44;62.87
79461;BME280;68929;42.666;23.324;2023-05-23T07:14:23;94441.34;;;18.95;60.58
79461;BME280;68929;42.666;23.324;2023-05-23T07:16:48;94407.81;;;19.17;60.73
79461;BME280;68929;42.666;23.324;2023-05-23T07:19:14;94432.91;;;19.67;59.54
79461;BME280;68929;42.666;23.324;2023-05-23T07:21:39;94399.84;;;19.76;57.56
79461;BME280;68929;42.666;23.324;2023-05-23T07:24:05;94419.03;;;19.99;58.04
79461;BME280;68929;42.666;23.324;2023-05-23T07:26:33;94406.16;;;20.44;59.16
79461;BME280;68929;42.666;23.324;2023-05-23T07:28:58;94419.16;;;20.66;55.61
79461;BME280;68929;42.666;23.324;2023-05-23T07:31:24;94393.00;;;19.99;57.64
79461;BME280;68929;42.666;23.324;2023-05-23T07:33:49;94406.78;;;19.87;58.45
79461;BME280;68929;42.666;23.324;2023-05-23T07:36:14;94418.38;;;20.27;56.32
79461;BME280;68929;42.666;23.324;2023-05-23T07:38:40;94416.13;;;20.39;57.00
79461;BME280;68929;42.666;23.324;2023-05-23T07:41:06;94417.03;;;20.63;55.27
79461;BME280;68929;42.666;23.324;2023-05-23T07:43:31;94396.47;;;20.48;56.85
79461;BME280;68929;42.666;23.324;2023-05-23T07:45:56;94412.63;;;20.38;55.74
79461;BME280;68929;42.666;23.324;2023-05-23T07:48:21;94396.44;;;20.82;54.40
79461;BME280;68929;42.666;23.324;2023-05-23T07:50:53;94402.72;;;21.01;53.75
79461;BME280;68929;42.666;23.324;2023-05-23T07:53:21;94392.72;;;20.78;54.05
79461;BME280;68929;42.666;23.324;2023-05-23T07:55:46;94395.72;;;21.05;54.12
79461;BME280;68929;42.666;23.324;2023-05-23T07:58:12;94409.66;;;21.07;54.54
79461;BME280;68929;42.666;23.324;2023-05-23T08:00:37;94383.16;;;21.24;53.45
79461;BME280;68929;42.666;23.324;2023-05-23T08:03:05;94397.50;;;21.38;53.19
79461;BME280;68929;42.666;23.324;2023-05-23T08:05:38;94391.16;;;21.29;55.00
79461;BME280;68929;42.666;23.324;2023-05-23T08:08:03;94394.97;;;21.71;52.83
79461;BME280;68929;42.666;23.324;2023-05-23T08:10:28;94375.66;;;21.45;53.05
79461;BME280;68929;42.666;23.324;2023-05-23T08:12:54;94397.00;;;21.84;53.03
79461;BME280;68929;42.666;23.324;2023-05-23T08:15:19;94367.31;;;21.89;50.95
79461;BME280;68929;42.666;23.324;2023-05-23T08:17:47;94370.25;;;22.11;51.80
79461;BME280;68929;42.666;23.324;2023-05-23T08:20:13;94374.63;;;22.07;52.31
79461;BME280;68929;42.666;23.324;2023-05-23T08:22:38;94376.13;;;22.13;53.08
79461;BME280;68929;42.666;23.324;2023-05-23T08:25:09;94390.75;;;22.07;53.28
79461;BME280;68929;42.666;23.324;2023-05-23T08:27:35;94382.28;;;22.32;51.13
79461;BME280;68929;42.666;23.324;2023-05-23T08:30:04;94387.56;;;22.05;51.74
79461;BME280;68929;42.666;23.324;2023-05-23T08:32:30;94379.03;;;21.98;52.26
79461;BME280;68929;42.666;23.324;2023-05-23T08:35:06;94393.06;;;22.32;50.37
79461;BME280;68929;42.666;23.324;2023-05-23T08:37:31;94393.22;;;22.22;49.71
79461;BME280;68929;42.666;23.324;2023-05-23T08:39:57;94375.63;;;22.11;52.76
79461;BME280;68929;42.666;23.324;2023-05-23T08:42:22;94368.28;;;22.16;52.16
79461;BME280;68929;42.666;23.324;2023-05-23T08:44:47;94375.16;;;22.41;51.22
79461;BME280;68929;42.666;23.324;2023-05-23T08:47:15;94302.16;;;21.92;50.03
79461;BME280;68929;42.666;23.324;2023-05-23T08:49:42;94373.34;;;22.37;50.43
79461;BME280;68929;42.666;23.324;2023-05-23T08:52:11;94359.91;;;22.18;51.54
79461;BME280;68929;42.666;23.324;2023-05-23T08:54:37;94376.78;;;22.61;51.20
79461;BME280;68929;42.666;23.324;2023-05-23T08:57:08;94367.22;;;22.50;50.77
79461;BME280;68929;42.666;23.324;2023-05-23T08:59:34;94374.47;;;22.68;48.99
79461;BME280;68929;42.666;23.324;2023-05-23T09:02:02;94383.69;;;23.13;51.25
79461;BME280;68929;42.666;23.324;2023-05-23T09:04:27;94382.25;;;23.34;47.57
79461;BME280;68929;42.666;23.324;2023-05-23T09:06:54;94381.25;;;23.57;50.08
79461;BME280;68929;42.666;23.324;2023-05-23T09:09:20;94373.34;;;23.60;49.02
79461;BME280;68929;42.666;23.324;2023-05-23T09:11:46;94358.47;;;23.36;47.31
79461;BME280;68929;42.666;23.324;2023-05-23T09:14:21;94385.44;;;23.36;47.20
79461;BME280;68929;42.666;23.324;2023-05-23T09:16:47;94368.97;;;23.51;44.09
79461;BME280;68929;42.666;23.324;2023-05-23T09:19:18;94349.59;;;23.03;45.96
79461;BME280;68929;42.666;23.324;2023-05-23T09:21:43;94367.44;;;23.45;46.07
79461;BME280;68929;42.666;23.324;2023-05-23T09:24:13;94369.44;;;23.80;45.78
79461;BME280;68929;42.666;23.324;2023-05-23T09:26:38;94358.66;;;23.80;43.06
79461;BME280;68929;42.666;23.324;2023-05-23T09:29:05;94362.84;;;23.72;44.79
79461;BME280;68929;42.666;23.324;2023-05-23T09:31:31;94360.00;;;23.91;44.01
79461;BME280;68929;42.666;23.324;2023-05-23T09:33:59;94361.00;;;24.44;45.30
79461;BME280;68929;42.666;23.324;2023-05-23T09:36:27;94351.75;;;24.23;40.68
79461;BME280;68929;42.666;23.324;2023-05-23T09:39:01;94357.78;;;23.93;45.97
79461;BME280;68929;42.666;23.324;2023-05-23T09:41:29;94360.69;;;24.10;40.84
79461;BME280;68929;42.666;23.324;2023-05-23T09:43:55;94370.53;;;24.28;39.17
79461;BME280;68929;42.666;23.324;2023-05-23T09:46:21;94354.38;;;24.01;41.16
79461;BME280;68929;42.666;23.324;2023-05-23T09:48:50;94355.69;;;24.39;39.99
79461;BME280;68929;42.666;23.324;2023-05-23T09:51:18;94337.41;;;24.36;41.30
79461;BME280;68929;42.666;23.324;2023-05-23T09:53:45;94348.22;;;24.81;40.75
79461;BME280;68929;42.666;23.324;2023-05-23T09:56:11;94337.81;;;25.27;39.31
79461;BME280;68929;42.666;23.324;2023-05-23T09:58:37;94339.06;;;25.21;32.92
79461;BME280;68929;42.666;23.324;2023-05-23T10:01:06;94341.34;;;25.36;36.34
79461;BME280;68929;42.666;23.324;2023-05-23T10:03:39;94341.50;;;25.39;36.59
79461;BME280;68929;42.666;23.324;2023-05-23T10:06:13;94306.66;;;25.38;38.95
79461;BME280;68929;42.666;23.324;2023-05-23T10:09:03;94331.69;;;26.08;34.51
79461;BME280;68929;42.666;23.324;2023-05-23T10:13:59;94331.03;;;26.97;34.76
79461;BME280;68929;42.666;23.324;2023-05-23T10:16:30;94325.66;;;26.29;34.09
79461;BME280;68929;42.666;23.324;2023-05-23T10:19:14;94315.13;;;26.19;34.74
79461;BME280;68929;42.666;23.324;2023-05-23T10:21:43;94329.16;;;26.38;35.29
79461;BME280;68929;42.666;23.324;2023-05-23T10:24:16;94321.78;;;26.81;33.47
79461;BME280;68929;42.666;23.324;2023-05-23T10:26:43;94336.06;;;27.24;34.96
79461;BME280;68929;42.666;23.324;2023-05-23T10:29:09;94310.56;;;27.00;31.38
79461;BME280;68929;42.666;23.324;2023-05-23T10:31:38;94320.38;;;27.38;34.33
79461;BME280;68929;42.666;23.324;2023-05-23T10:34:26;94307.06;;;27.75;31.35
79461;BME280;68929;42.666;23.324;2023-05-23T10:37:02;94331.88;;;27.94;29.79
79461;BME280;68929;42.666;23.324;2023-05-23T10:42:16;94303.63;;;27.65;29.03
79461;BME280;68929;42.666;23.324;2023-05-23T10:44:43;94322.94;;;28.43;30.73
79461;BME280;68929;42.666;23.324;2023-05-23T10:47:09;94290.63;;;28.95;28.67
79461;BME280;68929;42.666;23.324;2023-05-23T10:49:43;94319.63;;;29.23;30.41
79461;BME280;68929;42.666;23.324;2023-05-23T10:52:11;94310.72;;;28.49;32.27
79461;BME280;68929;42.666;23.324;2023-05-23T10:55:12;94304.16;;;29.03;29.70
79461;BME280;68929;42.666;23.324;2023-05-23T10:57:37;94284.25;;;29.84;32.33
79461;BME280;68929;42.666;23.324;2023-05-23T11:00:03;94295.63;;;31.21;27.95
79461;BME280;68929;42.666;23.324;2023-05-23T11:02:29;94292.25;;;31.27;26.14
79461;BME280;68929;42.666;23.324;2023-05-23T11:10:53;94270.22;;;30.89;24.44
79461;BME280;68929;42.666;23.324;2023-05-23T11:13:22;94267.06;;;31.34;25.08
79461;BME280;68929;42.666;23.324;2023-05-23T11:15:48;94303.03;;;31.98;23.53
79461;BME280;68929;42.666;23.324;2023-05-23T11:18:25;94291.34;;;32.71;25.66
79461;BME280;68929;42.666;23.324;2023-05-23T11:20:59;94270.50;;;31.93;22.68
79461;BME280;68929;42.666;23.324;2023-05-23T11:23:38;94286.56;;;31.48;23.23
79461;BME280;68929;42.666;23.324;2023-05-23T11:26:28;94287.75;;;31.04;23.51
79461;BME280;68929;42.666;23.324;2023-05-23T11:28:57;94278.44;;;31.36;26.10
79461;BME280;68929;42.666;23.324;2023-05-23T11:31:23;94272.41;;;32.08;22.32
79461;BME280;68929;42.666;23.324;2023-05-23T11:33:51;94264.53;;;30.82;23.93
79461;BME280;68929;42.666;23.324;2023-05-23T11:36:17;94264.06;;;30.37;25.50
79461;BME280;68929;42.666;23.324;2023-05-23T11:38:42;94265.44;;;31.45;23.83
79461;BME280;68929;42.666;23.324;2023-05-23T11:41:08;94269.44;;;31.82;22.97
79461;BME280;68929;42.666;23.324;2023-05-23T11:43:36;94268.56;;;31.78;25.31
79461;BME280;68929;42.666;23.324;2023-05-23T11:46:07;94259.00;;;32.03;25.06
79461;BME280;68929;42.666;23.324;2023-05-23T11:48:33;94264.09;;;31.54;23.06
79461;BME280;68929;42.666;23.324;2023-05-23T11:50:58;94272.97;;;31.36;23.38
79461;BME280;68929;42.666;23.324;2023-05-23T11:53:26;94268.84;;;31.42;23.58
79461;BME280;68929;42.666;23.324;2023-05-23T11:56:01;94252.81;;;30.94;25.10
79461;BME280;68929;42.666;23.324;2023-05-23T11:58:33;94264.34;;;30.75;23.22
79461;BME280;68929;42.666;23.324;2023-05-23T12:03:44;94229.06;;;29.99;25.84
79461;BME280;68929;42.666;23.324;2023-05-23T12:06:13;94257.59;;;30.57;28.29
79461;BME280;68929;42.666;23.324;2023-05-23T12:08:39;94247.22;;;29.10;25.97
79461;BME280;68929;42.666;23.324;2023-05-23T12:11:04;94239.25;;;30.02;25.58
79461;BME280;68929;42.666;23.324;2023-05-23T12:13:30;94236.88;;;30.96;24.42
79461;BME280;68929;42.666;23.324;2023-05-23T12:16:04;94239.28;;;31.94;23.37
79461;BME280;68929;42.666;23.324;2023-05-23T12:18:31;94234.38;;;32.57;23.33
79461;BME280;68929;42.666;23.324;2023-05-23T12:21:01;94236.06;;;30.67;26.83
79461;BME280;68929;42.666;23.324;2023-05-23T12:23:28;94240.53;;;30.88;24.02
79461;BME280;68929;42.666;23.324;2023-05-23T12:25:55;94237.47;;;30.34;24.61
79461;BME280;68929;42.666;23.324;2023-05-23T12:28:33;94221.59;;;30.24;26.13
79461;BME280;68929;42.666;23.324;2023-05-23T12:31:20;94215.78;;;29.97;24.89
79461;BME280;68929;42.666;23.324;2023-05-23T12:33:48;94213.63;;;29.91;27.80
79461;BME280;68929;42.666;23.324;2023-05-23T12:36:15;94212.47;;;31.03;26.05
79461;BME280;68929;42.666;23.324;2023-05-23T12:38:45;94195.78;;;31.54;23.63
79461;BME280;68929;42.666;23.324;2023-05-23T12:41:16;94198.50;;;32.62;21.66
79461;BME280;68929;42.666;23.324;2023-05-23T12:43:54;94193.50;;;31.25;22.32
79461;BME280;68929;42.666;23.324;2023-05-23T12:46:21;94221.31;;;30.68;24.08
79461;BME280;68929;42.666;23.324;2023-05-23T12:48:47;94220.00;;;30.23;22.68
79461;BME280;68929;42.666;23.324;2023-05-23T12:51:13;94218.31;;;30.73;24.33
79461;BME280;68929;42.666;23.324;2023-05-23T12:53:38;94199.50;;;31.62;23.31
79461;BME280;68929;42.666;23.324;2023-05-23T12:56:04;94203.59;;;31.72;23.36
79461;BME280;68929;42.666;23.324;2023-05-23T12:58:30;94205.78;;;30.02;23.89
79461;BME280;68929;42.666;23.324;2023-05-23T13:00:56;94191.84;;;30.46;21.88
79461;BME280;68929;42.666;23.324;2023-05-23T13:03:22;94204.97;;;30.56;22.44
79461;BME280;68929;42.666;23.324;2023-05-23T13:05:47;94184.72;;;31.01;23.34
79461;BME280;68929;42.666;23.324;2023-05-23T13:08:12;94182.47;;;32.22;20.75